Hlavní strana
METAR-TAF:

METAR-TAF

Letiště :

Dněpropetrovsk, Ukrajina

zeměpisná šířka: 48-21-26N, zeměpisná délka: 035-06-02E, výška: 147 m

Aktuální stav počasí

Zpráva byla vytvořena před 23 minutami, v 01:30 UTC
Severozápadní vítr 17 kt
Teplota 4°C
Vlhkost vzduchu 87%
Tlak 1015 hPa
Viditelnost 10 km a více
Žádná oblačnost pod 1500 m, nevyskytují se cumulonimby.

METAR: UKDD 090130Z 31009MPS CAVOK 04/02 Q1015 R26/210360 NOSIG

Čas: 04:53 (01:53 UTC)

Předpověď počasí

Zpráva byla vytvořena před 2 hodinami a 48 minutami, v 23:05 UTC
Předpověď platná od 09 v 00 UTC do 09 v 24 UTC
Severozápadní vítr 14 kt
Viditelnost: 6000 m
Oblačno až skoro zataženo ve výšce 1000 ft
Dočasný
od 09 v 00 UTC do 09 v 06 UTC
Severoseverozápadní vítr 19 kt s nárazy do 29 kt
Dočasný
od 09 v 06 UTC do 09 v 18 UTC
Severozápadní vítr 21 kt s nárazy do 33 kt

TAF: UKDD 082305Z 0900/0924 32007MPS 6000 BKN010 TX14/0912Z TN04/0903Z TEMPO 0900/0906 33010G15MPS TEMPO 0906/0918 31011G17MPS

Stav a předpovědi počasí z více než 4 000 letišť (zprávy METAR a TAF).

Červené a žluté tečky na mapě představují dostupné meteorologické stanice.

Když kurzor umístíte na tečku, zobrazí se název stanice.

Pak kliknutím zobrazíte stav a předpověď počasí.

Chcete-li změnit mapu, kliknutím na zelené tlačítko se znaménkem +mapu přiblížíte, kliknutím na zelené tlačítko se znaménkem – mapu oddálíte a kliknutím na zelené šipky přejdete na sousední mapy.


METAR-TAF: